»·PEaware :: N1477V KSBD-KAVX

N1477V :: KSBD-KAVX

FLIGHT INFORMATION

Flight Status: Arrived
Operator: Privately registered:
United States
More flights under this callsign
Pilot: Michael S. (27729)
Aircraft: CESSNA 172 SKYHAWK
(C172)
More flights by this aircraft type
Origin: KSBD San Bernardino Intl
United States
Destination: KAVX Catalina
United States
More flights between these airports :: More routes between these airports
Route: +PDZ V16 PRADO V363 DANAH SXC065 SXC
File this flight plan on PilotEdge
Remarks: TEC route ONTP8
Altitude:
(Current/Filed)
7,000ft
Speed:
(Current/Filed)
110kts
Departed: 07-Feb-20 03:12 PM
Arrived: 07-Feb-20 04:10 PM
Distance/Time
Traveled:
72nm/0:58
Distance/Time
To Go:
Arrived

Flight Plot

Page will automatically refresh every two minutes.


Map Options




Map Legend


Flown Route
Filed Route
Departure Airport
Arrival Airport
Navaid (VOR, NDB)
Fix

Horizontal Profiles

Position Reports

Time Latitude Longitude Heading Altitude Ground
Speed
07-Feb-20 14:50 34.102425 -117.224717 94 1146ft 0kts
07-Feb-20 14:51 34.102425 -117.224717 94 1146ft 0kts
07-Feb-20 14:52 34.102425 -117.224717 94 1146ft 0kts
07-Feb-20 14:53 34.102425 -117.224717 94 1146ft 0kts
07-Feb-20 14:54 34.102425 -117.224717 93 1146ft 0kts
07-Feb-20 14:55 34.102425 -117.224717 93 1146ft 0kts
07-Feb-20 14:56 34.102425 -117.224717 93 1146ft 0kts
07-Feb-20 14:57 34.102425 -117.224717 93 1146ft 0kts
07-Feb-20 14:58 34.102425 -117.224717 93 1146ft 0kts
07-Feb-20 14:59 34.102425 -117.224717 93 1146ft 0kts
07-Feb-20 15:00 34.102425 -117.224717 93 1146ft 0kts
07-Feb-20 15:02 34.102425 -117.224717 93 1146ft 0kts
07-Feb-20 15:03 34.102425 -117.224717 93 1146ft 0kts
07-Feb-20 15:04 34.101810 -117.224662 181 1146ft 11kts
07-Feb-20 15:05 34.099193 -117.227922 250 1137ft 18kts
07-Feb-20 15:06 34.096997 -117.235333 248 1118ft 25kts
07-Feb-20 15:07 34.094595 -117.243449 250 1096ft 25kts
07-Feb-20 15:08 34.092232 -117.250933 198 1081ft 13kts
07-Feb-20 15:09 34.091540 -117.250740 162 1081ft 0kts
07-Feb-20 15:10 34.091540 -117.250740 162 1081ft 0kts
07-Feb-20 15:11 34.091188 -117.248810 69 1085ft 38kts
07-Feb-20 15:12 34.088792 -117.222929 156 1714ft 95kts
07-Feb-20 15:13 34.076742 -117.241517 263 2701ft 83kts
07-Feb-20 15:14 34.070849 -117.267919 245 3533ft 88kts
07-Feb-20 15:15 34.058778 -117.295301 236 4238ft 95kts
07-Feb-20 15:16 34.044209 -117.321940 238 4929ft 96kts
07-Feb-20 15:17 34.028772 -117.348445 238 5632ft 97kts
07-Feb-20 15:18 34.013213 -117.374647 238 6333ft 95kts
07-Feb-20 15:19 33.997806 -117.400408 238 7036ft 96kts
07-Feb-20 15:20 33.979810 -117.430790 238 7001ft 114kts
07-Feb-20 15:21 33.961516 -117.461628 230 7000ft 111kts
07-Feb-20 15:21 33.946487 -117.486791 229 7001ft 111kts
07-Feb-20 15:22 33.928093 -117.516675 228 7001ft 111kts
07-Feb-20 15:24 33.920955 -117.559488 265 7002ft 117kts
07-Feb-20 15:24 33.921171 -117.592248 267 7002ft 117kts
07-Feb-20 15:25 33.921819 -117.631708 267 7002ft 118kts
07-Feb-20 15:26 33.922584 -117.671515 267 7001ft 118kts
07-Feb-20 15:28 33.923496 -117.717790 267 7001ft 118kts
07-Feb-20 15:28 33.924127 -117.750198 266 7000ft 113kts
07-Feb-20 15:29 33.911603 -117.777777 182 7002ft 99kts
07-Feb-20 15:30 33.884147 -117.779270 177 7007ft 98kts
07-Feb-20 15:31 33.857013 -117.779358 176 7035ft 103kts
07-Feb-20 15:32 33.827203 -117.779015 176 7034ft 109kts
07-Feb-20 15:33 33.796707 -117.778516 176 7035ft 109kts
07-Feb-20 15:34 33.767396 -117.770665 158 7036ft 108kts
07-Feb-20 15:35 33.739369 -117.757971 158 7036ft 108kts
07-Feb-20 15:36 33.711318 -117.744961 157 7036ft 108kts
07-Feb-20 15:37 33.683336 -117.731900 157 7036ft 108kts
07-Feb-20 15:38 33.653665 -117.725253 169 7037ft 108kts
07-Feb-20 15:39 33.623756 -117.720085 170 7037ft 108kts
07-Feb-20 15:40 33.593860 -117.715068 170 7038ft 108kts
07-Feb-20 15:41 33.563901 -117.710086 170 7038ft 108kts
07-Feb-20 15:42 33.531963 -117.704769 171 7039ft 122kts
07-Feb-20 15:43 33.497716 -117.699116 171 7038ft 125kts
07-Feb-20 15:44 33.478050 -117.727155 257 7038ft 119kts
07-Feb-20 15:45 33.470489 -117.765948 262 7038ft 118kts
07-Feb-20 15:46 33.464515 -117.804799 257 7038ft 118kts
07-Feb-20 15:47 33.458875 -117.844079 256 7038ft 119kts
07-Feb-20 15:48 33.453575 -117.883465 256 7038ft 119kts
07-Feb-20 15:49 33.447809 -117.923052 262 7013ft 122kts
07-Feb-20 15:50 33.441826 -117.964811 261 6740ft 135kts
07-Feb-20 15:51 33.435583 -118.007670 262 6229ft 117kts
07-Feb-20 15:52 33.430198 -118.044596 262 5722ft 109kts
07-Feb-20 15:53 33.425029 -118.079959 262 5222ft 107kts
07-Feb-20 15:54 33.419889 -118.115040 262 4723ft 106kts
07-Feb-20 15:55 33.414596 -118.151148 262 4229ft 112kts
07-Feb-20 15:56 33.409316 -118.186906 263 4070ft 106kts
07-Feb-20 15:57 33.404144 -118.221993 263 4072ft 107kts
07-Feb-20 15:58 33.398863 -118.257767 263 4074ft 109kts
07-Feb-20 15:59 33.393593 -118.293375 263 4076ft 108kts
07-Feb-20 16:00 33.388228 -118.329686 262 3717ft 109kts
07-Feb-20 16:01 33.383095 -118.364128 262 3380ft 98kts
07-Feb-20 16:02 33.378365 -118.395832 262 3384ft 95kts
07-Feb-20 16:03 33.390687 -118.406743 61 3400ft 105kts
07-Feb-20 16:04 33.400842 -118.370279 62 2627ft 124kts
07-Feb-20 16:05 33.421533 -118.362921 312 2068ft 92kts
07-Feb-20 16:06 33.436825 -118.386502 276 1703ft 93kts
07-Feb-20 16:07 33.419158 -118.397150 192 2140ft 83kts
07-Feb-20 16:08 33.406688 -118.412872 238 1520ft 49kts
07-Feb-20 16:09 33.404157 -118.414956 173 1544ft 11kts
07-Feb-20 16:10 33.403750 -118.414936 311 1544ft 0kts

Navigation Log

Ident Type
Flight plan parsing failed, navigation log unavailable